Aviation Digital Data Service (ADDS)

Output produced by METARs form (0511 UTC 20 April 2018)
found at http://aviationweather.gov/adds/metars/
 
METAR text: EPPO 200500Z 13006KT CAVOK 12/06 Q1028
Conditions at: EPPO (POZNAN/LAWICA , PL) observed 0500 UTC 20 April 2018
Temperature: 12.0°C (54°F)
Dewpoint: 6.0°C (43°F) [RH = 67%]
Pressure (altimeter): 30.35 inches Hg (1028.0 mb)
Winds: from the SE (130 degrees) at 7 MPH (6 knots; 3.1 m/s)
Visibility: 6 or more miles (10+ km)
Ceiling: ceiling and visibility are OK
Clouds: unknown
Weather: no significant weather observed at this time

Forecast for: EPPO (POZNAN/LAWICA , PL)
Text: TAF EPPO 192330Z 2000/2024 VRB02KT CAVOK
Forecast period: 0000 to 0900 UTC 20 April 2018
Forecast type: FROM: standard forecast or significant change
Winds: variable direction winds at 2 MPH (2 knots; 1.0 m/s)
Visibility: 6 or more miles (10+ km)
Clouds: not forecast
Weather: NSW  (no significant weather)
Forecast for: EPPO (POZNAN/LAWICA , PL)
Text: TAF EPPO 192330Z 2000/2024 VRB02KT CAVOK
Forecast period: 0000 to 0900 UTC 20 April 2018
Forecast type: FROM: standard forecast or significant change
Winds: variable direction winds at 2 MPH (2 knots; 1.0 m/s)
Visibility: 6 or more miles (10+ km)
Clouds: not forecast
Weather: NSW  (no significant weather)
Forecast for: EPPO (POZNAN/LAWICA , PL)
Text: TAF EPPO 192330Z 2000/2024 VRB02KT CAVOK
Forecast period: 0100 to 0600 UTC 20 April 2018
Forecast type: PROBABLE: 40 percent likelihood of the following during this time
Visibility: 2.49 miles (4.01 km)
Weather: BR  (mist)
Forecast for: EPPO (POZNAN/LAWICA , PL)
Text: TAF EPPO 192330Z 2000/2024 VRB02KT CAVOK
Forecast period: 0100 to 0600 UTC 20 April 2018
Forecast type: PROBABLE: 40 percent likelihood of the following during this time
Visibility: 2.49 miles (4.01 km)
Weather: BR  (mist)
Forecast for: EPPO (POZNAN/LAWICA , PL)
Text: TAF EPPO 192330Z 2000/2024 VRB02KT CAVOK
Forecast period: 0100 to 0500 UTC 20 April 2018
Forecast type: PROBABLE: 30 percent likelihood of the following during this time
Visibility: 0.37 miles (0.60 km)
Weather: FG  (fog)
Forecast for: EPPO (POZNAN/LAWICA , PL)
Text: TAF EPPO 192330Z 2000/2024 VRB02KT CAVOK
Forecast period: 0100 to 0500 UTC 20 April 2018
Forecast type: PROBABLE: 30 percent likelihood of the following during this time
Visibility: 0.37 miles (0.60 km)
Weather: FG  (fog)
Forecast for: EPPO (POZNAN/LAWICA , PL)
Text: TAF EPPO 192330Z 2000/2024 VRB02KT CAVOK
Forecast period: 0900 UTC 20 April 2018 to 0000 UTC 21 April 2018
Forecast type: BECOMING: Conditions expected to become as follows by 1200 UTC 20 April 2018
Winds: from the S (170 degrees) at 12 MPH (10 knots; 5.2 m/s)
Visibility: 6 or more miles (10+ km)
Weather: NSW  (no significant weather)
Forecast for: EPPO (POZNAN/LAWICA , PL)
Text: TAF EPPO 192330Z 2000/2024 VRB02KT CAVOK
Forecast period: 0900 UTC 20 April 2018 to 0000 UTC 21 April 2018
Forecast type: BECOMING: Conditions expected to become as follows by 1200 UTC 20 April 2018
Winds: from the S (170 degrees) at 12 MPH (10 knots; 5.2 m/s)
Visibility: 6 or more miles (10+ km)
Weather: NSW  (no significant weather)